sensor_id;sensor_type;location;lat;lon;timestamp;pressure;altitude;pressure_sealevel;temperature;humidity
60489;BME280;46331;49.252;8.904;2024-01-15T00:00:31;98801.91;;;2.31;55.94
60489;BME280;46331;49.252;8.904;2024-01-15T00:01:12;98796.88;;;2.36;55.96
60489;BME280;46331;49.252;8.904;2024-01-15T00:01:52;98793.84;;;2.39;55.87
60489;BME280;46331;49.252;8.904;2024-01-15T00:02:33;98799.81;;;2.46;55.29
60489;BME280;46331;49.252;8.904;2024-01-15T00:03:13;98797.81;;;2.48;55.57
60489;BME280;46331;49.252;8.904;2024-01-15T00:03:54;98803.44;;;2.52;55.34
60489;BME280;46331;49.252;8.904;2024-01-15T00:04:39;98799.81;;;2.53;55.10
60489;BME280;46331;49.252;8.904;2024-01-15T00:05:19;98793.97;;;2.51;55.43
60489;BME280;46331;49.252;8.904;2024-01-15T00:06:00;98803.66;;;2.50;55.39
60489;BME280;46331;49.252;8.904;2024-01-15T00:06:40;98800.25;;;2.43;54.82
60489;BME280;46331;49.252;8.904;2024-01-15T00:07:21;98804.69;;;2.43;55.40
60489;BME280;46331;49.252;8.904;2024-01-15T00:08:02;98812.19;;;2.26;55.69
60489;BME280;46331;49.252;8.904;2024-01-15T00:08:42;98797.91;;;2.22;56.13
60489;BME280;46331;49.252;8.904;2024-01-15T00:09:23;98795.88;;;2.30;56.10
60489;BME280;46331;49.252;8.904;2024-01-15T00:10:04;98795.06;;;2.30;55.60
60489;BME280;46331;49.252;8.904;2024-01-15T00:10:45;98800.91;;;2.19;55.84
60489;BME280;46331;49.252;8.904;2024-01-15T00:11:25;98804.53;;;2.24;56.30
60489;BME280;46331;49.252;8.904;2024-01-15T00:12:06;98805.16;;;2.20;55.94
60489;BME280;46331;49.252;8.904;2024-01-15T00:12:47;98805.13;;;2.33;56.08
60489;BME280;46331;49.252;8.904;2024-01-15T00:13:27;98797.44;;;2.38;55.79
60489;BME280;46331;49.252;8.904;2024-01-15T00:14:08;98797.06;;;2.35;55.36
60489;BME280;46331;49.252;8.904;2024-01-15T00:14:49;98797.22;;;2.46;55.96
60489;BME280;46331;49.252;8.904;2024-01-15T00:15:29;98788.78;;;2.44;55.62
60489;BME280;46331;49.252;8.904;2024-01-15T00:16:10;98791.78;;;2.48;55.58
60489;BME280;46331;49.252;8.904;2024-01-15T00:16:51;98784.13;;;2.46;55.88
60489;BME280;46331;49.252;8.904;2024-01-15T00:17:31;98784.94;;;2.47;55.63
60489;BME280;46331;49.252;8.904;2024-01-15T00:18:12;98786.16;;;2.44;55.82
60489;BME280;46331;49.252;8.904;2024-01-15T00:18:52;98787.94;;;2.50;55.85
60489;BME280;46331;49.252;8.904;2024-01-15T00:19:33;98778.94;;;2.40;56.24
60489;BME280;46331;49.252;8.904;2024-01-15T00:20:13;98782.13;;;2.48;55.87
60489;BME280;46331;49.252;8.904;2024-01-15T00:20:54;98777.09;;;2.47;55.76
60489;BME280;46331;49.252;8.904;2024-01-15T00:21:34;98788.94;;;2.49;55.75
60489;BME280;46331;49.252;8.904;2024-01-15T00:22:15;98781.88;;;2.57;55.75
60489;BME280;46331;49.252;8.904;2024-01-15T00:22:55;98781.69;;;2.58;55.43
60489;BME280;46331;49.252;8.904;2024-01-15T00:23:36;98782.88;;;2.62;55.70
60489;BME280;46331;49.252;8.904;2024-01-15T00:24:17;98777.28;;;2.52;55.55
60489;BME280;46331;49.252;8.904;2024-01-15T00:24:57;98783.31;;;2.53;55.75
60489;BME280;46331;49.252;8.904;2024-01-15T00:25:38;98781.50;;;2.46;55.96
60489;BME280;46331;49.252;8.904;2024-01-15T00:26:19;98777.91;;;2.47;56.13
60489;BME280;46331;49.252;8.904;2024-01-15T00:26:59;98773.31;;;2.36;56.26
60489;BME280;46331;49.252;8.904;2024-01-15T00:27:42;98774.28;;;2.48;56.49
60489;BME280;46331;49.252;8.904;2024-01-15T00:28:22;98772.03;;;2.52;55.86
60489;BME280;46331;49.252;8.904;2024-01-15T00:29:03;98765.97;;;2.58;55.68
60489;BME280;46331;49.252;8.904;2024-01-15T00:29:43;98771.63;;;2.55;56.28
60489;BME280;46331;49.252;8.904;2024-01-15T00:30:24;98764.75;;;2.61;55.85
60489;BME280;46331;49.252;8.904;2024-01-15T00:31:05;98767.53;;;2.66;55.55
60489;BME280;46331;49.252;8.904;2024-01-15T00:31:45;98770.97;;;2.66;55.70
60489;BME280;46331;49.252;8.904;2024-01-15T00:32:26;98769.03;;;2.48;55.61
60489;BME280;46331;49.252;8.904;2024-01-15T00:33:06;98760.16;;;2.56;55.96
60489;BME280;46331;49.252;8.904;2024-01-15T00:33:47;98762.97;;;2.55;55.77
60489;BME280;46331;49.252;8.904;2024-01-15T00:34:28;98762.56;;;2.51;56.29
60489;BME280;46331;49.252;8.904;2024-01-15T00:35:08;98755.91;;;2.55;56.09
60489;BME280;46331;49.252;8.904;2024-01-15T00:35:49;98758.69;;;2.60;55.92
60489;BME280;46331;49.252;8.904;2024-01-15T00:36:30;98757.75;;;2.48;55.99
60489;BME280;46331;49.252;8.904;2024-01-15T00:37:10;98753.97;;;2.37;56.77
60489;BME280;46331;49.252;8.904;2024-01-15T00:37:51;98753.94;;;2.50;56.86
60489;BME280;46331;49.252;8.904;2024-01-15T00:38:32;98748.91;;;2.49;56.42
60489;BME280;46331;49.252;8.904;2024-01-15T00:39:12;98746.03;;;2.57;56.32
60489;BME280;46331;49.252;8.904;2024-01-15T00:39:53;98751.66;;;2.61;56.19
60489;BME280;46331;49.252;8.904;2024-01-15T00:40:34;98755.28;;;2.60;56.13
60489;BME280;46331;49.252;8.904;2024-01-15T00:41:14;98747.75;;;2.38;56.55
60489;BME280;46331;49.252;8.904;2024-01-15T00:41:55;98744.72;;;2.41;56.87
60489;BME280;46331;49.252;8.904;2024-01-15T00:42:36;98748.16;;;2.35;56.92
60489;BME280;46331;49.252;8.904;2024-01-15T00:43:16;98743.91;;;2.41;56.50
60489;BME280;46331;49.252;8.904;2024-01-15T00:43:59;98745.13;;;2.38;57.05
60489;BME280;46331;49.252;8.904;2024-01-15T00:44:39;98744.75;;;2.28;57.10
60489;BME280;46331;49.252;8.904;2024-01-15T00:45:20;98748.31;;;2.40;56.92
60489;BME280;46331;49.252;8.904;2024-01-15T00:46:03;98739.84;;;2.52;56.80
60489;BME280;46331;49.252;8.904;2024-01-15T00:46:45;98735.19;;;2.54;57.38
60489;BME280;46331;49.252;8.904;2024-01-15T00:47:26;98727.97;;;2.49;57.07
60489;BME280;46331;49.252;8.904;2024-01-15T00:48:07;98732.41;;;2.48;57.32
60489;BME280;46331;49.252;8.904;2024-01-15T00:48:48;98730.59;;;2.49;56.75
60489;BME280;46331;49.252;8.904;2024-01-15T00:49:28;98732.16;;;2.57;56.67
60489;BME280;46331;49.252;8.904;2024-01-15T00:50:09;98731.72;;;2.60;56.73
60489;BME280;46331;49.252;8.904;2024-01-15T00:50:50;98730.53;;;2.62;56.65
60489;BME280;46331;49.252;8.904;2024-01-15T00:51:31;98728.31;;;2.59;56.42
60489;BME280;46331;49.252;8.904;2024-01-15T00:52:11;98729.09;;;2.66;56.88
60489;BME280;46331;49.252;8.904;2024-01-15T00:52:52;98734.50;;;2.72;56.41
60489;BME280;46331;49.252;8.904;2024-01-15T00:53:32;98728.28;;;2.66;56.69
60489;BME280;46331;49.252;8.904;2024-01-15T00:54:13;98738.53;;;2.67;56.56
60489;BME280;46331;49.252;8.904;2024-01-15T00:54:53;98729.69;;;2.68;56.81
60489;BME280;46331;49.252;8.904;2024-01-15T00:55:34;98730.25;;;2.77;56.54
60489;BME280;46331;49.252;8.904;2024-01-15T00:56:14;98735.69;;;2.76;56.42
60489;BME280;46331;49.252;8.904;2024-01-15T00:56:55;98732.25;;;2.75;56.13
60489;BME280;46331;49.252;8.904;2024-01-15T00:57:35;98736.28;;;2.78;56.18
60489;BME280;46331;49.252;8.904;2024-01-15T00:58:16;98734.25;;;2.80;56.37
60489;BME280;46331;49.252;8.904;2024-01-15T00:58:56;98729.44;;;2.77;56.27
60489;BME280;46331;49.252;8.904;2024-01-15T00:59:37;98726.22;;;2.75;56.36
60489;BME280;46331;49.252;8.904;2024-01-15T01:00:18;98739.47;;;2.80;56.04
60489;BME280;46331;49.252;8.904;2024-01-15T01:00:58;98738.09;;;2.77;56.36
60489;BME280;46331;49.252;8.904;2024-01-15T01:01:39;98744.34;;;2.76;56.39
60489;BME280;46331;49.252;8.904;2024-01-15T01:02:23;98736.44;;;2.83;56.13
60489;BME280;46331;49.252;8.904;2024-01-15T01:03:03;98734.84;;;2.82;56.03
60489;BME280;46331;49.252;8.904;2024-01-15T01:03:44;98728.84;;;2.75;56.27
60489;BME280;46331;49.252;8.904;2024-01-15T01:04:27;98734.63;;;2.83;56.14
60489;BME280;46331;49.252;8.904;2024-01-15T01:05:08;98736.13;;;2.66;56.46
60489;BME280;46331;49.252;8.904;2024-01-15T01:05:49;98738.94;;;2.71;56.37
60489;BME280;46331;49.252;8.904;2024-01-15T01:06:30;98733.72;;;2.71;56.43
60489;BME280;46331;49.252;8.904;2024-01-15T01:07:10;98740.78;;;2.64;56.44
60489;BME280;46331;49.252;8.904;2024-01-15T01:07:51;98739.59;;;2.60;56.37
60489;BME280;46331;49.252;8.904;2024-01-15T01:08:32;98735.34;;;2.65;56.52
60489;BME280;46331;49.252;8.904;2024-01-15T01:09:12;98731.94;;;2.65;56.60
60489;BME280;46331;49.252;8.904;2024-01-15T01:09:53;98751.91;;;2.53;56.50
60489;BME280;46331;49.252;8.904;2024-01-15T01:10:33;98743.56;;;2.69;56.83
60489;BME280;46331;49.252;8.904;2024-01-15T01:11:15;98737.06;;;2.78;56.69
60489;BME280;46331;49.252;8.904;2024-01-15T01:11:56;98737.38;;;2.57;56.78
60489;BME280;46331;49.252;8.904;2024-01-15T01:12:36;98730.75;;;2.54;56.91
60489;BME280;46331;49.252;8.904;2024-01-15T01:13:17;98733.56;;;2.59;57.05
60489;BME280;46331;49.252;8.904;2024-01-15T01:13:57;98729.91;;;2.67;56.98
60489;BME280;46331;49.252;8.904;2024-01-15T01:14:38;98727.84;;;2.69;57.07
60489;BME280;46331;49.252;8.904;2024-01-15T01:15:18;98739.78;;;2.65;56.41
60489;BME280;46331;49.252;8.904;2024-01-15T01:16:00;98732.56;;;2.54;56.69
60489;BME280;46331;49.252;8.904;2024-01-15T01:16:40;98733.72;;;2.64;56.77
60489;BME280;46331;49.252;8.904;2024-01-15T01:17:21;98736.13;;;2.66;56.77
60489;BME280;46331;49.252;8.904;2024-01-15T01:18:02;98730.09;;;2.65;56.61
60489;BME280;46331;49.252;8.904;2024-01-15T01:18:42;98723.47;;;2.63;56.70
60489;BME280;46331;49.252;8.904;2024-01-15T01:19:23;98726.69;;;2.65;56.65
60489;BME280;46331;49.252;8.904;2024-01-15T01:20:06;98736.50;;;2.76;56.84
60489;BME280;46331;49.252;8.904;2024-01-15T01:20:48;98724.88;;;2.59;56.54
60489;BME280;46331;49.252;8.904;2024-01-15T01:21:29;98728.25;;;2.73;56.81
60489;BME280;46331;49.252;8.904;2024-01-15T01:22:09;98735.44;;;2.45;57.22
60489;BME280;46331;49.252;8.904;2024-01-15T01:22:50;98721.69;;;2.57;56.73
60489;BME280;46331;49.252;8.904;2024-01-15T01:23:30;98723.81;;;2.73;56.28
60489;BME280;46331;49.252;8.904;2024-01-15T01:24:11;98724.38;;;2.82;56.54
60489;BME280;46331;49.252;8.904;2024-01-15T01:24:51;98721.19;;;2.73;56.49
60489;BME280;46331;49.252;8.904;2024-01-15T01:25:32;98732.03;;;2.77;56.34
60489;BME280;46331;49.252;8.904;2024-01-15T01:26:15;98723.19;;;2.78;56.36
60489;BME280;46331;49.252;8.904;2024-01-15T01:26:56;98729.16;;;2.53;56.92
60489;BME280;46331;49.252;8.904;2024-01-15T01:27:37;98726.09;;;2.63;56.86
60489;BME280;46331;49.252;8.904;2024-01-15T01:28:18;98742.34;;;2.72;57.04
60489;BME280;46331;49.252;8.904;2024-01-15T01:28:58;98738.47;;;2.42;57.43
60489;BME280;46331;49.252;8.904;2024-01-15T01:29:39;98735.22;;;2.47;56.99
60489;BME280;46331;49.252;8.904;2024-01-15T01:30:20;98735.03;;;2.42;57.45
60489;BME280;46331;49.252;8.904;2024-01-15T01:31:00;98734.19;;;2.55;57.03
60489;BME280;46331;49.252;8.904;2024-01-15T01:31:44;98735.97;;;2.54;57.17
60489;BME280;46331;49.252;8.904;2024-01-15T01:32:25;98742.88;;;2.48;57.20
60489;BME280;46331;49.252;8.904;2024-01-15T01:33:05;98745.88;;;2.52;57.36
60489;BME280;46331;49.252;8.904;2024-01-15T01:33:46;98738.59;;;2.54;56.75
60489;BME280;46331;49.252;8.904;2024-01-15T01:34:27;98744.47;;;2.49;57.48
60489;BME280;46331;49.252;8.904;2024-01-15T01:35:08;98742.25;;;2.53;57.21
60489;BME280;46331;49.252;8.904;2024-01-15T01:35:49;98736.38;;;2.58;56.88
60489;BME280;46331;49.252;8.904;2024-01-15T01:36:31;98745.75;;;2.72;56.89
60489;BME280;46331;49.252;8.904;2024-01-15T01:37:12;98744.59;;;2.68;56.69
60489;BME280;46331;49.252;8.904;2024-01-15T01:37:53;98738.53;;;2.74;56.62
60489;BME280;46331;49.252;8.904;2024-01-15T01:38:34;98734.44;;;2.78;56.90
60489;BME280;46331;49.252;8.904;2024-01-15T01:39:17;98742.09;;;2.80;56.59
60489;BME280;46331;49.252;8.904;2024-01-15T01:39:58;98740.47;;;2.85;56.70
60489;BME280;46331;49.252;8.904;2024-01-15T01:40:38;98729.00;;;2.80;56.25
60489;BME280;46331;49.252;8.904;2024-01-15T01:41:19;98728.78;;;2.81;56.31
60489;BME280;46331;49.252;8.904;2024-01-15T01:41:59;98736.44;;;2.83;56.31
60489;BME280;46331;49.252;8.904;2024-01-15T01:42:40;98729.78;;;2.87;56.63
60489;BME280;46331;49.252;8.904;2024-01-15T01:43:20;98730.56;;;2.88;56.71
60489;BME280;46331;49.252;8.904;2024-01-15T01:44:01;98736.91;;;2.73;56.50
60489;BME280;46331;49.252;8.904;2024-01-15T01:44:42;98740.53;;;2.72;56.29
60489;BME280;46331;49.252;8.904;2024-01-15T01:45:25;98732.72;;;2.65;56.81
60489;BME280;46331;49.252;8.904;2024-01-15T01:46:05;98732.09;;;2.70;56.78
60489;BME280;46331;49.252;8.904;2024-01-15T01:46:46;98730.47;;;2.76;56.50
60489;BME280;46331;49.252;8.904;2024-01-15T01:47:26;98724.81;;;2.72;56.45
60489;BME280;46331;49.252;8.904;2024-01-15T01:48:07;98726.28;;;2.68;56.81
60489;BME280;46331;49.252;8.904;2024-01-15T01:48:48;98722.84;;;2.67;56.73
60489;BME280;46331;49.252;8.904;2024-01-15T01:49:29;98724.72;;;2.54;57.53
60489;BME280;46331;49.252;8.904;2024-01-15T01:50:09;98725.66;;;2.66;56.77
60489;BME280;46331;49.252;8.904;2024-01-15T01:50:53;98726.00;;;2.76;56.60
60489;BME280;46331;49.252;8.904;2024-01-15T01:51:34;98723.81;;;2.73;56.63
60489;BME280;46331;49.252;8.904;2024-01-15T01:52:16;98730.41;;;2.82;56.74
60489;BME280;46331;49.252;8.904;2024-01-15T01:53:00;98737.25;;;2.83;55.98
60489;BME280;46331;49.252;8.904;2024-01-15T01:53:41;98724.91;;;2.91;56.19
60489;BME280;46331;49.252;8.904;2024-01-15T01:54:21;98729.84;;;2.74;56.09
60489;BME280;46331;49.252;8.904;2024-01-15T01:55:02;98721.03;;;2.68;56.21
60489;BME280;46331;49.252;8.904;2024-01-15T01:55:45;98723.59;;;2.75;56.21
60489;BME280;46331;49.252;8.904;2024-01-15T01:56:26;98720.00;;;2.76;56.35
60489;BME280;46331;49.252;8.904;2024-01-15T01:57:08;98722.56;;;2.82;56.12
60489;BME280;46331;49.252;8.904;2024-01-15T01:57:48;98729.22;;;2.78;56.15
60489;BME280;46331;49.252;8.904;2024-01-15T01:58:32;98725.75;;;2.84;56.35
60489;BME280;46331;49.252;8.904;2024-01-15T01:59:13;98710.69;;;2.80;56.08
60489;BME280;46331;49.252;8.904;2024-01-15T01:59:54;98723.09;;;2.59;56.22
60489;BME280;46331;49.252;8.904;2024-01-15T02:00:36;98718.44;;;2.61;56.55
60489;BME280;46331;49.252;8.904;2024-01-15T02:01:16;98724.81;;;2.72;56.08
60489;BME280;46331;49.252;8.904;2024-01-15T02:01:58;98725.84;;;2.71;56.31
60489;BME280;46331;49.252;8.904;2024-01-15T02:02:41;98716.59;;;2.68;56.24
60489;BME280;46331;49.252;8.904;2024-01-15T02:03:21;98720.06;;;2.56;56.80
60489;BME280;46331;49.252;8.904;2024-01-15T02:04:03;98716.66;;;2.55;57.12
60489;BME280;46331;49.252;8.904;2024-01-15T02:04:44;98716.81;;;2.60;56.85
60489;BME280;46331;49.252;8.904;2024-01-15T02:05:25;98714.19;;;2.67;56.69
60489;BME280;46331;49.252;8.904;2024-01-15T02:06:07;98713.78;;;2.70;56.58
60489;BME280;46331;49.252;8.904;2024-01-15T02:06:48;98713.22;;;2.61;56.75
60489;BME280;46331;49.252;8.904;2024-01-15T02:07:29;98709.06;;;2.40;56.84
60489;BME280;46331;49.252;8.904;2024-01-15T02:08:09;98710.44;;;2.49;57.04
60489;BME280;46331;49.252;8.904;2024-01-15T02:08:50;98713.66;;;2.52;56.81
60489;BME280;46331;49.252;8.904;2024-01-15T02:09:31;98719.69;;;2.52;56.89
60489;BME280;46331;49.252;8.904;2024-01-15T02:10:12;98717.13;;;2.45;57.06
60489;BME280;46331;49.252;8.904;2024-01-15T02:10:53;98706.88;;;2.44;56.77
60489;BME280;46331;49.252;8.904;2024-01-15T02:11:33;98723.03;;;2.27;57.17
60489;BME280;46331;49.252;8.904;2024-01-15T02:12:14;98713.19;;;2.23;57.53
60489;BME280;46331;49.252;8.904;2024-01-15T02:12:54;98713.34;;;2.28;57.53
60489;BME280;46331;49.252;8.904;2024-01-15T02:13:35;98721.38;;;2.40;57.11
60489;BME280;46331;49.252;8.904;2024-01-15T02:14:16;98715.63;;;2.18;57.42
60489;BME280;46331;49.252;8.904;2024-01-15T02:14:56;98714.56;;;2.32;57.68
60489;BME280;46331;49.252;8.904;2024-01-15T02:15:37;98714.34;;;2.33;57.39
60489;BME280;46331;49.252;8.904;2024-01-15T02:16:17;98712.09;;;2.37;57.67
60489;BME280;46331;49.252;8.904;2024-01-15T02:16:58;98715.50;;;2.44;57.35
60489;BME280;46331;49.252;8.904;2024-01-15T02:18:01;98710.38;;;2.63;56.92
60489;BME280;46331;49.252;8.904;2024-01-15T02:18:43;98716.09;;;2.46;56.93
60489;BME280;46331;49.252;8.904;2024-01-15T02:19:24;98712.31;;;2.42;57.37
60489;BME280;46331;49.252;8.904;2024-01-15T02:20:05;98713.25;;;2.48;56.92
60489;BME280;46331;49.252;8.904;2024-01-15T02:20:46;98708.44;;;2.52;57.32
60489;BME280;46331;49.252;8.904;2024-01-15T02:21:26;98707.19;;;2.54;57.15
60489;BME280;46331;49.252;8.904;2024-01-15T02:22:09;98714.16;;;2.35;57.04
60489;BME280;46331;49.252;8.904;2024-01-15T02:22:50;98712.47;;;2.47;56.97
60489;BME280;46331;49.252;8.904;2024-01-15T02:23:31;98706.97;;;2.17;58.22
60489;BME280;46331;49.252;8.904;2024-01-15T02:24:11;98709.75;;;2.29;57.93
60489;BME280;46331;49.252;8.904;2024-01-15T02:24:52;98714.19;;;2.28;57.30
60489;BME280;46331;49.252;8.904;2024-01-15T02:25:33;98711.78;;;2.27;57.77
60489;BME280;46331;49.252;8.904;2024-01-15T02:26:14;98712.34;;;2.29;57.69
60489;BME280;46331;49.252;8.904;2024-01-15T02:26:54;98701.03;;;2.42;57.63
60489;BME280;46331;49.252;8.904;2024-01-15T02:27:35;98701.00;;;2.48;57.30
60489;BME280;46331;49.252;8.904;2024-01-15T02:28:17;98705.34;;;2.61;57.19
60489;BME280;46331;49.252;8.904;2024-01-15T02:28:57;98699.97;;;2.56;56.87
60489;BME280;46331;49.252;8.904;2024-01-15T02:29:38;98709.75;;;2.29;56.97
60489;BME280;46331;49.252;8.904;2024-01-15T02:30:19;98717.00;;;2.27;57.51
60489;BME280;46331;49.252;8.904;2024-01-15T02:31:00;98708.91;;;2.35;57.42
60489;BME280;46331;49.252;8.904;2024-01-15T02:31:40;98716.38;;;2.25;57.38
60489;BME280;46331;49.252;8.904;2024-01-15T02:32:21;98705.22;;;2.49;57.64
60489;BME280;46331;49.252;8.904;2024-01-15T02:33:01;98715.28;;;2.46;57.10
60489;BME280;46331;49.252;8.904;2024-01-15T02:33:42;98713.69;;;2.45;57.29
60489;BME280;46331;49.252;8.904;2024-01-15T02:34:23;98717.38;;;2.30;57.38
60489;BME280;46331;49.252;8.904;2024-01-15T02:35:04;98717.50;;;2.49;57.23
60489;BME280;46331;49.252;8.904;2024-01-15T02:35:44;98713.56;;;2.33;57.08
60489;BME280;46331;49.252;8.904;2024-01-15T02:36:26;98714.56;;;2.32;57.47
60489;BME280;46331;49.252;8.904;2024-01-15T02:37:07;98709.16;;;2.20;57.97
60489;BME280;46331;49.252;8.904;2024-01-15T02:37:47;98719.16;;;2.37;57.23
60489;BME280;46331;49.252;8.904;2024-01-15T02:38:28;98713.06;;;2.49;57.25
60489;BME280;46331;49.252;8.904;2024-01-15T02:39:08;98717.19;;;2.32;57.50
60489;BME280;46331;49.252;8.904;2024-01-15T02:39:49;98714.09;;;2.42;57.24
60489;BME280;46331;49.252;8.904;2024-01-15T02:40:29;98709.91;;;2.34;57.43
60489;BME280;46331;49.252;8.904;2024-01-15T02:41:10;98710.44;;;2.49;57.53
60489;BME280;46331;49.252;8.904;2024-01-15T02:41:50;98711.25;;;2.50;57.10
60489;BME280;46331;49.252;8.904;2024-01-15T02:42:31;98714.66;;;2.50;56.91
60489;BME280;46331;49.252;8.904;2024-01-15T02:43:11;98708.44;;;2.52;56.96
60489;BME280;46331;49.252;8.904;2024-01-15T02:43:53;98718.50;;;2.55;56.99
60489;BME280;46331;49.252;8.904;2024-01-15T02:44:34;98707.91;;;2.36;57.14
60489;BME280;46331;49.252;8.904;2024-01-15T02:45:14;98712.47;;;2.47;57.20
60489;BME280;46331;49.252;8.904;2024-01-15T02:45:55;98712.47;;;2.47;57.26
60489;BME280;46331;49.252;8.904;2024-01-15T02:46:36;98715.03;;;2.54;56.91
60489;BME280;46331;49.252;8.904;2024-01-15T02:47:16;98705.84;;;2.45;56.97
60489;BME280;46331;49.252;8.904;2024-01-15T02:47:57;98710.63;;;2.55;57.19
60489;BME280;46331;49.252;8.904;2024-01-15T02:48:37;98713.72;;;2.38;57.13
60489;BME280;46331;49.252;8.904;2024-01-15T02:49:18;98716.09;;;2.46;57.20
60489;BME280;46331;49.252;8.904;2024-01-15T02:49:58;98710.44;;;2.49;56.91
60489;BME280;46331;49.252;8.904;2024-01-15T02:50:39;98710.06;;;2.46;56.89
60489;BME280;46331;49.252;8.904;2024-01-15T02:51:20;98712.44;;;2.54;56.82
60489;BME280;46331;49.252;8.904;2024-01-15T02:52:00;98709.06;;;2.47;57.00
60489;BME280;46331;49.252;8.904;2024-01-15T02:52:41;98720.75;;;2.44;57.44
60489;BME280;46331;49.252;8.904;2024-01-15T02:53:21;98714.09;;;2.48;57.01
60489;BME280;46331;49.252;8.904;2024-01-15T02:54:02;98710.22;;;2.51;57.09
60489;BME280;46331;49.252;8.904;2024-01-15T02:54:43;98710.44;;;2.56;56.69
60489;BME280;46331;49.252;8.904;2024-01-15T02:55:23;98717.09;;;2.52;57.28
60489;BME280;46331;49.252;8.904;2024-01-15T02:56:04;98715.66;;;2.56;56.79
60489;BME280;46331;49.252;8.904;2024-01-15T02:56:44;98713.66;;;2.52;57.14
60489;BME280;46331;49.252;8.904;2024-01-15T02:57:25;98713.13;;;2.36;57.35
60489;BME280;46331;49.252;8.904;2024-01-15T02:58:05;98719.31;;;2.48;57.10
60489;BME280;46331;49.252;8.904;2024-01-15T02:58:46;98721.13;;;2.48;57.51
60489;BME280;46331;49.252;8.904;2024-01-15T02:59:26;98711.25;;;2.50;56.85
60489;BME280;46331;49.252;8.904;2024-01-15T03:00:07;98716.06;;;2.53;56.92
60489;BME280;46331;49.252;8.904;2024-01-15T03:00:48;98717.34;;;2.37;57.20
60489;BME280;46331;49.252;8.904;2024-01-15T03:01:28;98708.88;;;2.42;57.37
60489;BME280;46331;49.252;8.904;2024-01-15T03:02:09;98712.44;;;2.54;56.85
60489;BME280;46331;49.252;8.904;2024-01-15T03:02:50;98715.44;;;2.58;56.68
60489;BME280;46331;49.252;8.904;2024-01-15T03:03:34;98714.03;;;2.55;57.09
60489;BME280;46331;49.252;8.904;2024-01-15T03:04:15;98708.00;;;2.55;56.54
60489;BME280;46331;49.252;8.904;2024-01-15T03:04:55;98713.41;;;2.60;56.79
60489;BME280;46331;49.252;8.904;2024-01-15T03:05:36;98705.41;;;2.55;56.77
60489;BME280;46331;49.252;8.904;2024-01-15T03:06:16;98705.56;;;2.60;56.78
60489;BME280;46331;49.252;8.904;2024-01-15T03:06:57;98712.22;;;2.56;56.50
60489;BME280;46331;49.252;8.904;2024-01-15T03:07:37;98698.19;;;2.43;57.16
60489;BME280;46331;49.252;8.904;2024-01-15T03:08:18;98702.81;;;2.48;57.40
60489;BME280;46331;49.252;8.904;2024-01-15T03:08:58;98702.38;;;2.58;57.17
60489;BME280;46331;49.252;8.904;2024-01-15T03:09:39;98708.03;;;2.48;56.96
60489;BME280;46331;49.252;8.904;2024-01-15T03:10:19;98709.03;;;2.54;56.99
60489;BME280;46331;49.252;8.904;2024-01-15T03:11:00;98706.56;;;2.59;56.91
60489;BME280;46331;49.252;8.904;2024-01-15T03:11:40;98704.34;;;2.62;57.05
60489;BME280;46331;49.252;8.904;2024-01-15T03:12:21;98695.88;;;2.67;56.83
60489;BME280;46331;49.252;8.904;2024-01-15T03:13:01;98700.09;;;2.68;57.00
60489;BME280;46331;49.252;8.904;2024-01-15T03:13:42;98700.53;;;2.65;56.37
60489;BME280;46331;49.252;8.904;2024-01-15T03:14:22;98697.72;;;2.60;57.11
60489;BME280;46331;49.252;8.904;2024-01-15T03:15:05;98701.53;;;2.57;56.97
60489;BME280;46331;49.252;8.904;2024-01-15T03:15:46;98707.28;;;2.41;57.50
60489;BME280;46331;49.252;8.904;2024-01-15T03:16:26;98704.78;;;2.53;57.07
60489;BME280;46331;49.252;8.904;2024-01-15T03:17:07;98705.63;;;2.46;57.32
60489;BME280;46331;49.252;8.904;2024-01-15T03:17:49;98704.88;;;2.39;57.05
60489;BME280;46331;49.252;8.904;2024-01-15T03:18:30;98701.13;;;2.60;57.26
60489;BME280;46331;49.252;8.904;2024-01-15T03:19:10;98705.19;;;2.56;56.84
60489;BME280;46331;49.252;8.904;2024-01-15T03:19:51;98702.78;;;2.55;57.03
60489;BME280;46331;49.252;8.904;2024-01-15T03:20:31;98697.34;;;2.49;56.94
60489;BME280;46331;49.252;8.904;2024-01-15T03:21:12;98699.03;;;2.37;57.14
60489;BME280;46331;49.252;8.904;2024-01-15T03:21:52;98704.41;;;2.49;57.50
60489;BME280;46331;49.252;8.904;2024-01-15T03:22:33;98699.22;;;2.42;57.24
60489;BME280;46331;49.252;8.904;2024-01-15T03:23:13;98693.09;;;2.55;57.09
60489;BME280;46331;49.252;8.904;2024-01-15T03:23:54;98697.16;;;2.51;57.22
60489;BME280;46331;49.252;8.904;2024-01-15T03:24:35;98698.56;;;2.54;57.19
60489;BME280;46331;49.252;8.904;2024-01-15T03:25:15;98691.69;;;2.53;56.75
60489;BME280;46331;49.252;8.904;2024-01-15T03:25:56;98689.28;;;2.51;57.11
60489;BME280;46331;49.252;8.904;2024-01-15T03:26:37;98691.34;;;2.49;57.29
60489;BME280;46331;49.252;8.904;2024-01-15T03:27:17;98699.13;;;2.56;57.10
60489;BME280;46331;49.252;8.904;2024-01-15T03:27:57;98694.94;;;2.55;57.26
60489;BME280;46331;49.252;8.904;2024-01-15T03:28:38;98696.56;;;2.49;57.17
60489;BME280;46331;49.252;8.904;2024-01-15T03:29:18;98696.50;;;2.56;57.02
60489;BME280;46331;49.252;8.904;2024-01-15T03:29:59;98681.88;;;2.48;57.36
60489;BME280;46331;49.252;8.904;2024-01-15T03:30:40;98690.06;;;2.58;57.43
60489;BME280;46331;49.252;8.904;2024-01-15T03:31:20;98694.94;;;2.55;57.63
60489;BME280;46331;49.252;8.904;2024-01-15T03:32:01;98694.19;;;2.41;57.97
60489;BME280;46331;49.252;8.904;2024-01-15T03:32:41;98691.13;;;2.50;57.45
60489;BME280;46331;49.252;8.904;2024-01-15T03:33:22;98694.75;;;2.49;57.30
60489;BME280;46331;49.252;8.904;2024-01-15T03:34:02;98699.00;;;2.44;57.43
60489;BME280;46331;49.252;8.904;2024-01-15T03:34:43;98685.03;;;2.57;57.09
60489;BME280;46331;49.252;8.904;2024-01-15T03:35:24;98686.47;;;2.53;57.44
60489;BME280;46331;49.252;8.904;2024-01-15T03:36:09;98673.38;;;2.59;57.39
60489;BME280;46331;49.252;8.904;2024-01-15T03:36:50;98682.44;;;2.57;57.16
60489;BME280;46331;49.252;8.904;2024-01-15T03:37:30;98671.69;;;2.33;57.47
60489;BME280;46331;49.252;8.904;2024-01-15T03:38:11;98674.22;;;2.46;57.45
60489;BME280;46331;49.252;8.904;2024-01-15T03:38:51;98687.50;;;2.52;57.60
60489;BME280;46331;49.252;8.904;2024-01-15T03:39:32;98682.81;;;2.60;57.42